createdAt,value
2023-03-12T00:04:29.894Z,7.10
2023-03-12T00:09:21.568Z,7.30
2023-03-12T00:14:13.432Z,4.97
2023-03-12T00:19:05.184Z,7.40
2023-03-12T00:23:56.980Z,5.67
2023-03-12T00:28:50.483Z,6.37
2023-03-12T00:33:42.294Z,8.13
2023-03-12T00:38:34.125Z,5.57
2023-03-12T00:43:26.428Z,9.00
2023-03-12T00:48:18.307Z,8.20
2023-03-12T00:53:10.137Z,7.53
2023-03-12T00:58:01.982Z,7.40
2023-03-12T01:02:55.453Z,8.13
2023-03-12T01:07:47.422Z,8.00
2023-03-12T01:12:39.120Z,8.50
2023-03-12T01:17:30.953Z,6.70
2023-03-12T01:22:23.542Z,6.40
2023-03-12T01:27:15.171Z,6.57
2023-03-12T01:32:07.127Z,7.13
2023-03-12T01:36:59.519Z,7.07
2023-03-12T01:41:51.504Z,5.63
2023-03-12T01:46:46.044Z,7.97
2023-03-12T01:51:55.662Z,6.70
2023-03-12T01:56:50.640Z,7.13
2023-03-12T02:01:43.491Z,7.67
2023-03-12T02:06:43.797Z,5.43
2023-03-12T02:11:35.944Z,7.50
2023-03-12T02:16:27.768Z,7.23
2023-03-12T02:21:24.057Z,5.13
2023-03-12T02:26:19.427Z,4.93
2023-03-12T02:31:16.351Z,8.00
2023-03-12T02:36:09.336Z,8.80
2023-03-12T02:41:12.256Z,4.83
2023-03-12T02:46:04.883Z,4.97
2023-03-12T02:50:56.634Z,6.33
2023-03-12T02:55:48.555Z,4.93
2023-03-12T03:00:40.370Z,5.67
2023-03-12T03:05:32.829Z,4.83
2023-03-12T03:10:24.855Z,3.93
2023-03-12T03:15:16.769Z,6.43
2023-03-12T03:20:11.366Z,5.20
2023-03-12T03:25:04.354Z,8.00
2023-03-12T03:29:56.262Z,4.63
2023-03-12T03:34:48.373Z,5.50
2023-03-12T03:39:41.540Z,4.07
2023-03-12T03:44:33.364Z,3.73
2023-03-12T03:49:26.172Z,6.00
2023-03-12T03:54:18.309Z,4.37
2023-03-12T03:59:11.473Z,4.53
2023-03-12T04:04:05.461Z,3.43
2023-03-12T04:08:59.358Z,4.93
2023-03-12T04:13:52.675Z,5.50
2023-03-12T04:18:48.293Z,5.30
2023-03-12T04:23:41.996Z,6.27
2023-03-12T04:28:36.061Z,5.87
2023-03-12T04:33:29.813Z,3.43
2023-03-12T04:38:24.196Z,3.83
2023-03-12T04:43:20.793Z,3.13
2023-03-12T04:48:13.331Z,3.87
2023-03-12T04:53:05.101Z,3.53
2023-03-12T04:57:56.740Z,5.60
2023-03-12T05:02:49.250Z,5.43
2023-03-12T05:07:41.850Z,3.67
2023-03-12T05:12:33.632Z,3.57
2023-03-12T05:17:25.355Z,4.00
2023-03-12T05:22:17.619Z,5.07
2023-03-12T05:27:09.940Z,6.77
2023-03-12T05:32:02.818Z,6.17
2023-03-12T05:36:54.664Z,4.90
2023-03-12T05:41:49.202Z,4.13
2023-03-12T05:46:43.983Z,5.57
2023-03-12T05:51:36.641Z,4.87
2023-03-12T05:56:28.623Z,3.33
2023-03-12T06:01:25.837Z,3.60
2023-03-12T06:06:20.218Z,4.27
2023-03-12T06:11:12.704Z,4.43
2023-03-12T06:16:05.669Z,5.80
2023-03-12T06:21:15.562Z,4.80
2023-03-12T06:26:07.678Z,5.77
2023-03-12T06:31:00.135Z,3.50
2023-03-12T06:35:56.624Z,4.37
2023-03-12T06:41:16.162Z,5.30
2023-03-12T06:46:11.350Z,6.50
2023-03-12T06:51:04.532Z,3.33
2023-03-12T06:55:56.367Z,3.57
2023-03-12T07:00:48.017Z,5.67
2023-03-12T07:05:40.027Z,5.00
2023-03-12T07:10:31.958Z,5.30
2023-03-12T07:15:24.316Z,4.40
2023-03-12T07:20:16.296Z,4.40
2023-03-12T07:25:09.852Z,6.50
2023-03-12T07:30:02.041Z,3.07
2023-03-12T07:34:53.704Z,4.50
2023-03-12T07:39:45.439Z,5.97
2023-03-12T07:44:37.183Z,4.97
2023-03-12T07:49:28.958Z,4.27
2023-03-12T07:54:20.977Z,2.97
2023-03-12T07:59:13.168Z,5.33
2023-03-12T08:04:05.055Z,4.73
2023-03-12T08:08:56.899Z,4.47
2023-03-12T08:13:48.699Z,4.40
2023-03-12T08:18:43.048Z,4.73
2023-03-12T08:23:35.673Z,3.83
2023-03-12T08:28:28.142Z,5.47
2023-03-12T08:33:20.669Z,4.93
2023-03-12T08:38:12.560Z,5.80
2023-03-12T08:43:04.650Z,8.87
2023-03-12T08:47:56.413Z,5.97
2023-03-12T08:52:48.684Z,4.47
2023-03-12T08:57:40.953Z,6.00
2023-03-12T09:02:32.616Z,8.70
2023-03-12T09:07:24.381Z,3.80
2023-03-12T09:12:16.230Z,4.83
2023-03-12T09:17:07.886Z,6.17
2023-03-12T09:21:59.515Z,6.80
2023-03-12T09:26:51.213Z,7.97
2023-03-12T09:31:42.894Z,5.53
2023-03-12T09:36:34.583Z,5.93
2023-03-12T09:41:30.558Z,6.47
2023-03-12T09:46:33.831Z,5.23
2023-03-12T09:51:46.519Z,5.80
2023-03-12T09:56:38.499Z,6.83
2023-03-12T10:01:47.972Z,4.93
2023-03-12T10:07:01.061Z,6.80
2023-03-12T10:12:17.760Z,6.37
2023-03-12T10:17:15.556Z,6.37
2023-03-12T10:22:26.435Z,6.10
2023-03-12T10:27:18.949Z,5.20
2023-03-12T10:32:10.588Z,6.73
2023-03-12T10:37:21.525Z,7.57
2023-03-12T10:42:21.612Z,5.73
2023-03-12T10:47:38.027Z,7.60
2023-03-12T10:52:29.762Z,6.30
2023-03-12T10:57:22.051Z,6.50
2023-03-12T11:02:30.602Z,5.60
2023-03-12T11:07:29.550Z,5.00
2023-03-12T11:12:27.681Z,5.73
2023-03-12T11:17:25.408Z,6.90
2023-03-12T11:22:32.111Z,6.20
2023-03-12T11:27:59.192Z,5.60
2023-03-12T11:32:51.652Z,7.37
2023-03-12T11:38:16.243Z,9.47
2023-03-12T11:43:39.972Z,10.70
2023-03-12T11:48:42.887Z,8.73
2023-03-12T11:54:02.223Z,7.70
2023-03-12T11:59:39.116Z,10.93
2023-03-12T12:04:33.737Z,7.30
2023-03-12T12:09:44.275Z,6.80
2023-03-12T12:14:39.032Z,9.73
2023-03-12T12:19:36.818Z,13.63
2023-03-12T12:24:55.920Z,9.73
2023-03-12T12:30:02.955Z,8.60
2023-03-12T12:34:57.599Z,7.47
2023-03-12T12:40:01.404Z,9.27
2023-03-12T12:44:57.841Z,8.77
2023-03-12T12:49:55.350Z,12.50
2023-03-12T12:54:59.328Z,8.47
2023-03-12T13:00:28.347Z,11.40
2023-03-12T13:05:38.277Z,7.97
2023-03-12T13:10:33.028Z,9.30
2023-03-12T13:15:30.971Z,10.03
2023-03-12T13:20:28.956Z,8.93
2023-03-12T13:25:45.844Z,10.63
2023-03-12T13:30:37.488Z,9.13
2023-03-12T13:35:32.772Z,8.80
2023-03-12T13:40:30.616Z,9.70
2023-03-12T13:45:25.503Z,9.37
2023-03-12T13:50:17.432Z,11.23
2023-03-12T13:55:26.705Z,12.17
2023-03-12T14:00:40.300Z,10.03
2023-03-12T14:05:43.371Z,14.00
2023-03-12T14:11:00.123Z,13.13
2023-03-12T14:15:58.633Z,15.97
2023-03-12T14:21:06.333Z,12.27
2023-03-12T14:26:03.908Z,10.30
2023-03-12T14:31:05.757Z,9.20
2023-03-12T14:36:10.235Z,10.10
2023-03-12T14:41:14.620Z,11.97
2023-03-12T14:46:18.374Z,9.70
2023-03-12T14:51:28.656Z,12.07
2023-03-12T14:56:30.820Z,12.23
2023-03-12T15:01:34.476Z,10.00
2023-03-12T15:06:30.633Z,13.53
2023-03-12T15:11:25.131Z,10.57
2023-03-12T15:16:17.360Z,10.23
2023-03-12T15:21:09.268Z,10.43
2023-03-12T15:26:27.021Z,11.43
2023-03-12T15:31:18.947Z,8.17
2023-03-12T15:36:19.802Z,8.33
2023-03-12T15:41:20.144Z,11.27
2023-03-12T15:46:12.590Z,13.83
2023-03-12T15:51:14.123Z,13.40
2023-03-12T15:56:10.360Z,13.13
2023-03-12T16:01:18.342Z,16.27
2023-03-12T16:06:13.119Z,19.73
2023-03-12T16:11:10.009Z,15.03
2023-03-12T16:16:02.023Z,14.37
2023-03-12T16:20:54.156Z,13.40
2023-03-12T16:25:48.923Z,14.90
2023-03-12T16:30:40.913Z,13.00
2023-03-12T16:35:33.341Z,12.70
2023-03-12T16:40:33.348Z,18.77
2023-03-12T16:45:27.792Z,11.60
2023-03-12T16:50:22.421Z,16.83
2023-03-12T16:55:15.468Z,13.23
2023-03-12T17:00:11.929Z,13.73
2023-03-12T17:05:03.742Z,9.80
2023-03-12T17:09:55.436Z,18.20
2023-03-12T17:14:48.006Z,13.83
2023-03-12T17:19:39.743Z,18.67
2023-03-12T17:24:31.827Z,15.80
2023-03-12T17:29:23.892Z,13.17
2023-03-12T17:34:15.822Z,16.13
2023-03-12T17:39:07.524Z,15.67
2023-03-12T17:44:01.730Z,13.97
2023-03-12T17:48:53.754Z,14.80
2023-03-12T17:53:46.637Z,14.70
2023-03-12T17:58:38.906Z,12.00
2023-03-12T18:03:30.617Z,15.33
2023-03-12T18:08:22.316Z,16.70
2023-03-12T18:13:14.384Z,13.67
2023-03-12T18:18:06.078Z,14.20
2023-03-12T18:22:57.852Z,15.87
2023-03-12T18:27:49.473Z,16.23
2023-03-12T18:32:41.342Z,16.03
2023-03-12T18:37:33.691Z,16.20
2023-03-12T18:42:25.560Z,17.27
2023-03-12T18:47:19.004Z,14.30
2023-03-12T18:52:10.857Z,14.07
2023-03-12T18:57:02.542Z,14.10
2023-03-12T19:01:54.699Z,10.57
2023-03-12T19:06:51.238Z,20.70
2023-03-12T19:11:43.513Z,13.30
2023-03-12T19:16:35.200Z,13.57
2023-03-12T19:21:26.954Z,14.90
2023-03-12T19:26:18.529Z,16.73
2023-03-12T19:31:15.105Z,14.17
2023-03-12T19:36:07.652Z,14.87
2023-03-12T19:40:59.649Z,15.07
2023-03-12T19:45:52.968Z,18.93
2023-03-12T19:50:47.620Z,14.80
2023-03-12T19:55:39.709Z,13.87
2023-03-12T20:00:31.700Z,14.93
2023-03-12T20:05:23.368Z,13.43
2023-03-12T20:10:15.703Z,16.37
2023-03-12T20:15:08.496Z,14.50
2023-03-12T20:20:01.216Z,16.13
2023-03-12T20:24:53.958Z,14.40
2023-03-12T20:29:50.809Z,13.97
2023-03-12T20:34:42.484Z,10.43
2023-03-12T20:39:34.236Z,14.60
2023-03-12T20:44:26.001Z,16.63
2023-03-12T20:49:17.819Z,12.50
